Lower Ranchito, New Mexico
Current Conditions -  °F | °C
As of 12:55 PM on Sunday 23 Nov 2014 (Local Time) from KSKX Reporting Station
Overcast Overcast  
Wind Chill: 20°   Ceiling: 8000
Heat Index: 28°   Visibility: 10mi
Dew Point: 25°   Wind: 8mph
Humidity: 86%   Direction: 270°W
Pressure: 29.8"   Gusts: NA
Location:  36.6959°N, 106.135°W
Report Text: KSKX 231955Z AUTO 27007KT 10SM FEW007 SCT044 OVC080 M02/M04 A2980 RMK AO1 P0001
Loading
Personal Weather Stations






























Interactive Weather Map New forecast layout! Learn more

10-Day Weather Forecast

Advertisements
Track Severe Weather on mobile